Time;durP1;ratioP1;P1;durP2;ratioP2;P2;SDS_P1;SDS_P2;PMS_P1;PMS_P2;Temp;Humidity;BMP_temperature;BMP_pressure;BME280_temperature;BME280_humidity;BME280_pressure;Samples;Min_cycle;Max_cycle;Signal;HPM_P1;HPM_P2
2022/04/20 00:00:54;;;;;;;0.40;0.22;;;;;;;10.58;100.00;100581.41;4953172;29;20489;-75
2022/04/20 00:03:24;;;;;;;0.35;0.20;;;;;;;10.57;100.00;100588.31;4956731;28;20410;-74
2022/04/20 00:05:52;;;;;;;0.30;0.30;;;;;;;10.60;100.00;100587.50;4991795;28;20137;-73
2022/04/20 00:08:21;;;;;;;0.63;0.40;;;;;;;10.62;100.00;100589.28;4991386;28;20137;-73
2022/04/20 00:10:49;;;;;;;0.90;0.30;;;;;;;10.69;100.00;100596.38;4991392;28;20462;-72
2022/04/20 00:13:18;;;;;;;0.65;0.30;;;;;;;10.77;100.00;100585.38;4991677;28;20137;-74
2022/04/20 00:15:46;;;;;;;0.95;0.30;;;;;;;10.83;100.00;100590.69;4992093;28;20054;-76
2022/04/20 00:18:15;;;;;;;0.45;0.30;;;;;;;10.84;99.84;100589.88;4992007;28;20054;-73
2022/04/20 00:20:45;;;;;;;1.00;0.45;;;;;;;10.90;100.00;100590.00;4991664;28;20058;-74
2022/04/20 00:23:13;;;;;;;0.90;0.40;;;;;;;10.89;97.65;100581.38;4991251;28;20081;-75
2022/04/20 00:25:42;;;;;;;0.98;0.30;;;;;;;11.14;100.00;100587.16;4991378;28;20511;-76
2022/04/20 00:28:10;;;;;;;0.50;0.40;;;;;;;11.26;100.00;100584.00;4991419;28;20046;-75
2022/04/20 00:30:41;;;;;;;0.40;0.40;;;;;;;11.25;100.00;100580.53;4992456;28;20488;-74
2022/04/20 00:33:10;;;;;;;0.30;0.30;;;;;;;11.24;100.00;100586.53;4990984;28;20763;-73
2022/04/20 00:35:39;;;;;;;0.70;0.55;;;;;;;11.30;100.00;100583.25;4991023;28;20116;-75
2022/04/20 00:38:09;;;;;;;1.58;0.47;;;;;;;11.49;100.00;100584.53;4990155;28;20129;-76
2022/04/20 00:40:38;;;;;;;0.38;0.30;;;;;;;11.64;76.93;100581.44;4991278;28;20496;-77
2022/04/20 00:43:07;;;;;;;0.40;0.30;;;;;;;11.69;81.55;100588.44;4991724;28;20054;-76
2022/04/20 00:45:37;;;;;;;0.40;0.30;;;;;;;11.72;74.79;100600.59;4991413;28;20109;-75
2022/04/20 00:48:08;;;;;;;0.80;0.40;;;;;;;11.74;73.86;100604.09;4991191;28;20797;-75
2022/04/20 00:50:37;;;;;;;0.22;0.10;;;;;;;11.72;70.40;100609.25;4991326;28;20046;-78
2022/04/20 00:53:06;;;;;;;0.20;0.20;;;;;;;11.74;73.04;100611.88;4991988;28;20069;-76
2022/04/20 00:55:36;;;;;;;0.55;0.22;;;;;;;11.81;74.58;100607.72;4993831;28;20051;-75
2022/04/20 00:58:04;;;;;;;0.15;0.10;;;;;;;11.86;71.78;100608.69;4990768;28;20050;-76
2022/04/20 01:00:33;;;;;;;0.50;0.20;;;;;;;11.88;73.80;100605.31;4990520;28;20042;-75
2022/04/20 01:03:02;;;;;;;0.30;0.30;;;;;;;11.94;72.45;100604.59;4990188;28;20100;-75
2022/04/20 01:05:31;;;;;;;1.63;0.20;;;;;;;11.97;73.15;100604.63;4955635;28;20063;-75
2022/04/20 01:07:59;;;;;;;0.20;0.20;;;;;;;11.98;71.72;100609.00;4951656;29;20054;-75
2022/04/20 01:10:28;;;;;;;0.13;0.10;;;;;;;11.95;71.75;100606.31;4952144;29;20485;-75
2022/04/20 01:12:58;;;;;;;1.83;0.17;;;;;;;11.98;72.67;100613.28;4951196;29;20073;-78
2022/04/20 01:15:27;;;;;;;0.13;0.10;;;;;;;11.97;71.74;100619.31;4951845;29;20047;-73
2022/04/20 01:17:55;;;;;;;0.20;0.20;;;;;;;12.01;73.81;100615.97;4951969;29;20047;-73
2022/04/20 01:20:24;;;;;;;0.10;0.10;;;;;;;11.98;69.70;100615.88;4951835;29;20058;-74
2022/04/20 01:22:54;;;;;;;0.10;0.10;;;;;;;11.82;69.02;100617.22;4950670;29;20051;-73
2022/04/20 01:25:22;;;;;;;0.10;0.10;;;;;;;11.72;71.05;100616.16;4952790;28;20110;-74
2022/04/20 01:27:51;;;;;;;0.28;0.10;;;;;;;11.65;72.12;100622.03;4950842;29;20051;-76
2022/04/20 01:30:20;;;;;;;0.15;0.15;;;;;;;11.63;72.88;100624.59;4951977;29;20051;-74
2022/04/20 01:32:48;;;;;;;0.20;0.20;;;;;;;11.61;72.37;100630.56;4951773;29;20055;-75
2022/04/20 01:35:16;;;;;;;0.30;0.10;;;;;;;11.56;72.80;100630.47;4950586;29;20051;-75
2022/04/20 01:37:45;;;;;;;0.10;0.10;;;;;;;11.51;76.90;100630.38;4952362;28;20051;-77
2022/04/20 01:40:15;;;;;;;0.30;0.20;;;;;;;11.49;79.03;100629.44;4970009;28;20110;-79
2022/04/20 01:42:43;;;;;;;0.38;0.20;;;;;;;11.48;80.21;100627.72;4969515;28;20085;-75
2022/04/20 01:45:12;;;;;;;0.38;0.20;;;;;;;11.47;80.26;100627.66;4969419;28;20587;-74
2022/04/20 01:47:40;;;;;;;0.10;0.10;;;;;;;11.42;80.81;100622.38;4950840;28;20113;-74
2022/04/20 01:50:09;;;;;;;0.25;0.10;;;;;;;11.34;80.63;100626.50;4950839;29;20077;-73
2022/04/20 01:52:38;;;;;;;0.20;0.10;;;;;;;11.30;86.14;100624.69;4951844;29;20069;-74
2022/04/20 01:55:07;;;;;;;0.10;0.10;;;;;;;11.28;88.46;100619.44;4950476;29;20090;-72
2022/04/20 01:57:37;;;;;;;1.15;0.20;;;;;;;11.28;90.45;100610.81;4950022;29;20055;-72
2022/04/20 02:00:07;;;;;;;0.13;0.13;;;;;;;11.20;92.17;100602.88;4950951;29;20085;-72
2022/04/20 02:02:35;;;;;;;0.55;0.35;;;;;;;11.17;94.27;100607.09;4949525;28;20083;-72
2022/04/20 02:05:05;;;;;;;0.25;0.20;;;;;;;11.10;93.27;100613.81;4976369;28;20073;-72
2022/04/20 02:07:33;;;;;;;0.88;0.20;;;;;;;11.01;96.67;100605.81;4988056;28;20050;-72
2022/04/20 02:10:02;;;;;;;1.10;0.30;;;;;;;10.98;100.00;100609.22;4988214;28;20082;-73
2022/04/20 02:12:31;;;;;;;0.30;0.30;;;;;;;10.91;100.00;100581.44;4988272;28;20072;-72
2022/04/20 02:15:01;;;;;;;0.57;0.20;;;;;;;11.06;100.00;100593.84;4988774;28;20078;-73
2022/04/20 02:17:30;;;;;;;0.30;0.20;;;;;;;11.11;100.00;100581.94;4987278;28;20054;-71
2022/04/20 02:20:00;;;;;;;0.30;0.30;;;;;;;11.16;100.00;100584.63;4988112;28;20560;-72
2022/04/20 02:22:28;;;;;;;0.30;0.30;;;;;;;11.12;100.00;100581.06;4987899;28;20056;-74
2022/04/20 02:24:59;;;;;;;0.43;0.20;;;;;;;10.98;100.00;100579.88;4988214;28;20575;-71
2022/04/20 02:27:28;;;;;;;0.52;0.35;;;;;;;10.85;100.00;100581.25;4988478;28;20073;-74
2022/04/20 02:29:56;;;;;;;0.35;0.30;;;;;;;10.72;100.00;100580.09;4987911;28;20153;-75
2022/04/20 02:32:27;;;;;;;1.33;0.20;;;;;;;10.63;100.00;100582.44;4987749;28;20088;-75
2022/04/20 02:34:55;;;;;;;1.00;0.30;;;;;;;10.57;100.00;100587.44;4988397;28;20072;-74
2022/04/20 02:37:24;;;;;;;0.20;0.20;;;;;;;10.52;100.00;100594.19;4987777;28;20168;-74
2022/04/20 02:39:53;;;;;;;0.43;0.28;;;;;;;10.45;100.00;100606.09;4988006;28;20081;-75
2022/04/20 02:42:21;;;;;;;0.10;0.10;;;;;;;10.34;100.00;100608.38;4988027;28;20108;-74
2022/04/20 02:44:50;;;;;;;0.35;0.20;;;;;;;10.27;100.00;100602.09;4989154;28;20109;-75
2022/04/20 02:47:18;;;;;;;0.93;0.40;;;;;;;10.24;100.00;100609.78;4991277;28;20054;-74
2022/04/20 02:49:49;;;;;;;0.40;0.22;;;;;;;10.25;100.00;100608.94;4990476;28;20043;-76
2022/04/20 02:52:17;;;;;;;0.65;0.20;;;;;;;10.29;100.00;100611.66;4989494;28;20046;-76
2022/04/20 02:54:46;;;;;;;0.47;0.20;;;;;;;10.27;100.00;100609.00;4989663;28;20058;-77
2022/04/20 02:57:14;;;;;;;1.80;0.10;;;;;;;10.26;100.00;100600.38;4989463;28;20047;-75
2022/04/20 02:59:43;;;;;;;0.25;0.20;;;;;;;10.21;100.00;100583.81;4989160;28;20050;-76
2022/04/20 03:02:12;;;;;;;0.52;0.30;;;;;;;10.20;100.00;100581.22;4988626;28;20097;-75
2022/04/20 03:04:40;;;;;;;0.10;0.10;;;;;;;10.15;100.00;100588.84;4987221;28;20133;-75
2022/04/20 03:07:10;;;;;;;1.23;0.10;;;;;;;10.05;100.00;100584.22;4988514;28;20081;-76
2022/04/20 03:09:38;;;;;;;0.63;0.30;;;;;;;10.00;100.00;100580.66;4988116;28;20048;-75
2022/04/20 03:12:08;;;;;;;0.35;0.32;;;;;;;9.98;100.00;100590.06;4987888;28;20097;-74
2022/04/20 03:14:36;;;;;;;0.40;0.22;;;;;;;9.94;100.00;100590.78;4988075;28;20070;-72
2022/04/20 03:17:05;;;;;;;1.75;0.30;;;;;;;9.90;100.00;100591.56;4988078;28;20054;-73
2022/04/20 03:19:34;;;;;;;0.82;0.28;;;;;;;9.84;100.00;100593.09;4987919;28;20054;-74
2022/04/20 03:22:02;;;;;;;0.00;0.00;;;;;;;9.80;100.00;100588.69;4988547;28;20134;-72
2022/04/20 03:24:32;;;;;;;0.20;0.10;;;;;;;9.76;100.00;100594.59;4988145;28;20050;-73
2022/04/20 03:27:01;;;;;;;0.85;0.25;;;;;;;9.72;100.00;100605.66;4988968;28;20088;-73
2022/04/20 03:29:29;;;;;;;1.45;0.40;;;;;;;9.69;100.00;100610.75;4992113;28;20515;-73
2022/04/20 03:31:58;;;;;;;0.77;0.30;;;;;;;9.67;100.00;100606.34;4991664;28;20129;-73
2022/04/20 03:34:26;;;;;;;0.77;0.30;;;;;;;9.63;100.00;100608.84;4991455;28;20054;-73
2022/04/20 03:36:55;;;;;;;0.30;0.20;;;;;;;9.61;100.00;100618.25;4991755;28;20109;-73
2022/04/20 03:39:23;;;;;;;0.45;0.30;;;;;;;9.59;100.00;100613.88;4991153;28;20054;-73
2022/04/20 03:41:53;;;;;;;0.90;0.40;;;;;;;9.55;100.00;100617.19;4991532;28;20058;-73
2022/04/20 03:44:35;;;;;;;0.85;0.32;;;;;;;9.48;100.00;100623.84;4992929;28;20129;-74
2022/04/20 03:47:04;;;;;;;0.20;0.20;;;;;;;9.37;100.00;100615.78;4994471;28;20049;-73
2022/04/20 03:49:32;;;;;;;0.17;0.17;;;;;;;9.26;100.00;100622.31;4992285;28;20073;-74
2022/04/20 03:52:01;;;;;;;1.02;0.50;;;;;;;9.14;100.00;100625.38;4992258;28;20081;-74
2022/04/20 03:54:30;;;;;;;0.43;0.30;;;;;;;9.11;100.00;100625.25;4991900;28;20117;-73
2022/04/20 03:57:07;;;;;;;0.98;0.30;;;;;;;9.07;100.00;100619.94;4992217;28;20080;-75
2022/04/20 03:59:36;;;;;;;1.77;0.45;;;;;;;9.05;100.00;100626.72;4992108;28;20582;-76
2022/04/20 04:02:06;;;;;;;2.15;0.40;;;;;;;9.02;100.00;100623.25;4991707;28;20049;-74
2022/04/20 04:04:35;;;;;;;0.40;0.40;;;;;;;9.04;100.00;100622.41;4976537;28;20086;-74
2022/04/20 04:07:04;;;;;;;0.77;0.45;;;;;;;9.04;100.00;100630.16;4951844;29;20051;-75
2022/04/20 04:09:32;;;;;;;3.65;0.40;;;;;;;9.04;100.00;100619.84;4952177;29;20148;-74
2022/04/20 04:12:02;;;;;;;0.40;0.30;;;;;;;9.04;100.00;100625.00;4952064;29;20078;-75
2022/04/20 04:14:31;;;;;;;0.38;0.28;;;;;;;9.05;100.00;100621.56;4952098;29;20051;-75
2022/04/20 04:16:59;;;;;;;0.20;0.20;;;;;;;9.09;100.00;100613.97;4952223;29;20079;-75
2022/04/20 04:19:27;;;;;;;2.60;0.47;;;;;;;9.12;100.00;100624.44;4952370;29;20051;-74
2022/04/20 04:21:56;;;;;;;1.00;0.57;;;;;;;9.12;100.00;100613.25;4952300;28;20166;-74
2022/04/20 04:24:36;;;;;;;1.10;0.65;;;;;;;9.08;100.00;100611.38;4951924;29;20126;-75
2022/04/20 04:27:07;;;;;;;0.70;0.28;;;;;;;9.10;100.00;100625.22;4952428;29;20106;-76
2022/04/20 04:29:36;;;;;;;0.38;0.38;;;;;;;9.10;100.00;100613.19;4952701;29;20098;-76
2022/04/20 04:32:06;;;;;;;1.23;0.50;;;;;;;9.09;100.00;100606.25;4952546;29;20791;-77
2022/04/20 04:34:34;;;;;;;0.22;0.20;;;;;;;9.08;100.00;100611.38;4951475;29;20628;-76
2022/04/20 04:37:03;;;;;;;1.60;0.20;;;;;;;9.06;100.00;100608.72;4952294;29;20047;-76
2022/04/20 04:39:31;;;;;;;0.57;0.32;;;;;;;9.07;100.00;100609.59;4969705;28;20073;-75
2022/04/20 04:42:00;;;;;;;1.10;0.40;;;;;;;9.04;100.00;100619.84;4973504;28;20047;-75
2022/04/20 04:44:32;;;;;;;1.48;0.43;;;;;;;9.00;100.00;100614.59;4968864;28;20125;-75
2022/04/20 04:49:45;;;;;;;2.42;0.85;;;;;;;8.97;100.00;100634.22;4953941;29;20057;-75
2022/04/20 04:52:14;;;;;;;6.32;2.17;;;;;;;8.95;100.00;100630.72;4953244;28;20113;-75
2022/04/20 04:54:43;;;;;;;9.73;2.78;;;;;;;8.95;100.00;100635.88;4952444;29;20489;-76
2022/04/20 04:57:12;;;;;;;2.92;1.55;;;;;;;8.93;100.00;100638.44;4953105;29;20059;-76
2022/04/20 04:59:43;;;;;;;2.65;1.48;;;;;;;8.92;100.00;100635.78;4952280;29;20511;-76
2022/04/20 05:02:11;;;;;;;1.73;0.90;;;;;;;8.90;100.00;100635.72;4952125;29;20106;-76
2022/04/20 05:04:41;;;;;;;3.97;2.05;;;;;;;8.93;100.00;100638.44;4967792;28;20122;-74
2022/04/20 05:07:09;;;;;;;8.85;2.58;;;;;;;8.91;100.00;100645.25;4990946;28;20050;-76
2022/04/20 05:09:38;;;;;;;5.72;1.70;;;;;;;8.89;100.00;100649.47;4989889;28;20061;-76
2022/04/20 05:12:07;;;;;;;4.00;2.17;;;;;;;8.88;100.00;100646.81;4990331;28;20046;-75
2022/04/20 05:14:39;;;;;;;6.20;1.73;;;;;;;8.87;100.00;100648.53;4990178;28;20046;-76
2022/04/20 05:17:09;;;;;;;2.53;1.80;;;;;;;8.86;100.00;100645.88;4991467;28;20077;-77
2022/04/20 05:19:37;;;;;;;6.20;1.70;;;;;;;8.84;100.00;100656.13;4990288;28;20130;-78
2022/04/20 05:22:06;;;;;;;3.15;1.40;;;;;;;8.81;100.00;100658.63;4992275;28;20100;-80
2022/04/20 05:24:36;;;;;;;1.85;0.80;;;;;;;8.78;100.00;100655.94;4990805;28;20137;-78
2022/04/20 05:27:04;;;;;;;2.15;1.00;;;;;;;8.81;100.00;100666.38;4991289;28;20056;-79
2022/04/20 05:29:32;;;;;;;1.75;0.80;;;;;;;8.82;100.00;100660.41;4990377;28;20046;-80
2022/04/20 05:32:02;;;;;;;4.53;1.35;;;;;;;8.85;100.00;100662.22;4989255;28;20050;-77
2022/04/20 05:34:33;;;;;;;1.90;1.17;;;;;;;8.85;100.00;100660.50;4990311;28;20054;-79
2022/04/20 05:42:31;;;;;;;0.82;0.75;;;;;;;8.82;100.00;100647.50;4991698;28;20408;-81
2022/04/20 05:45:00;;;;;;;2.50;0.90;;;;;;;8.83;100.00;100646.66;4992436;28;20298;-80
2022/04/20 05:47:29;;;;;;;1.02;0.68;;;;;;;8.84;100.00;100653.56;4992198;28;20053;-80
2022/04/20 05:49:59;;;;;;;3.22;0.90;;;;;;;8.84;100.00;100643.25;4991781;28;20057;-81
2022/04/20 05:52:27;;;;;;;1.80;1.00;;;;;;;8.86;100.00;100631.28;4989836;28;20072;-80
2022/04/20 05:54:57;;;;;;;4.07;1.00;;;;;;;8.79;100.00;100616.41;4991155;28;20050;-80
2022/04/20 05:57:25;;;;;;;1.13;0.70;;;;;;;8.90;100.00;100638.31;4991009;28;20053;-81
2022/04/20 05:59:53;;;;;;;2.95;0.93;;;;;;;8.91;100.00;100621.09;4991476;28;20515;-80
2022/04/20 06:02:22;;;;;;;1.17;0.68;;;;;;;8.92;100.00;100628.91;4990350;28;20046;-80
2022/04/20 06:04:50;;;;;;;1.10;0.70;;;;;;;8.94;100.00;100628.97;4990042;28;20054;-79
2022/04/20 06:07:20;;;;;;;1.30;0.88;;;;;;;8.96;100.00;100633.38;4990635;28;20051;-79
2022/04/20 06:09:48;;;;;;;3.10;1.08;;;;;;;8.98;100.00;100625.69;4989753;28;20050;-80
2022/04/20 06:12:16;;;;;;;1.25;0.80;;;;;;;8.98;100.00;100630.84;4990311;28;20058;-81
2022/04/20 06:14:45;;;;;;;1.10;0.90;;;;;;;8.98;100.00;100623.97;4990441;28;20054;-81
2022/04/20 06:17:13;;;;;;;1.25;0.80;;;;;;;8.98;100.00;100621.41;4989502;28;20053;-81
2022/04/20 06:19:41;;;;;;;1.90;0.75;;;;;;;8.97;100.00;100622.19;4988243;28;20419;-81
2022/04/20 06:22:10;;;;;;;1.00;0.60;;;;;;;8.96;100.00;100611.84;4989977;28;20484;-81
2022/04/20 06:24:39;;;;;;;2.05;1.20;;;;;;;8.95;100.00;100610.06;4989650;28;20198;-81
2022/04/20 06:27:08;;;;;;;1.55;0.88;;;;;;;8.93;100.00;100611.72;4990180;28;20130;-81
2022/04/20 06:29:36;;;;;;;1.88;0.88;;;;;;;8.92;100.00;100610.84;4989891;28;20058;-82
2022/04/20 06:32:06;;;;;;;1.05;0.55;;;;;;;8.90;100.00;100612.50;4989929;28;20054;-80
2022/04/20 06:34:35;;;;;;;0.77;0.50;;;;;;;8.87;100.00;100619.28;4990040;28;20054;-81
2022/04/20 06:37:05;;;;;;;1.42;0.55;;;;;;;8.82;100.00;100616.53;4990835;28;20072;-81
2022/04/20 06:39:34;;;;;;;0.63;0.43;;;;;;;8.73;100.00;100618.81;4993686;28;20089;-81
2022/04/20 06:42:04;;;;;;;3.78;0.90;;;;;;;8.75;100.00;100611.97;4990598;28;20060;-82
2022/04/20 06:44:32;;;;;;;2.20;0.63;;;;;;;8.73;100.00;100603.31;4990746;28;20077;-82
2022/04/20 06:47:00;;;;;;;0.95;0.50;;;;;;;8.71;100.00;100595.53;4991102;28;20061;-82
2022/04/20 06:49:29;;;;;;;1.27;0.70;;;;;;;8.70;100.00;100596.34;4989990;28;20050;-81
2022/04/20 07:00:16;;;;;;;1.45;0.43;;;;;;;8.56;100.00;100585.53;4990707;28;20058;-82
2022/04/20 07:02:44;;;;;;;1.05;0.80;;;;;;;8.51;100.00;100592.25;4989612;28;20112;-81
2022/04/20 07:05:13;;;;;;;1.00;0.60;;;;;;;8.47;100.00;100592.94;4989894;28;20054;-81
2022/04/20 07:07:41;;;;;;;1.15;0.50;;;;;;;8.44;100.00;100592.84;4990496;28;20046;-82
2022/04/20 07:10:10;;;;;;;1.25;0.68;;;;;;;8.40;100.00;100590.97;4990033;28;20092;-82
2022/04/20 07:12:40;;;;;;;0.95;0.50;;;;;;;8.28;100.00;100569.91;4990105;28;20046;-81
2022/04/20 07:15:09;;;;;;;0.80;0.50;;;;;;;8.33;100.00;100584.69;4990470;28;20065;-82
2022/04/20 07:17:37;;;;;;;0.85;0.68;;;;;;;8.29;100.00;100579.38;4991194;28;20480;-82
2022/04/20 07:20:06;;;;;;;0.60;0.43;;;;;;;8.27;100.00;100575.88;4990759;28;20064;-82
2022/04/20 07:22:35;;;;;;;0.52;0.40;;;;;;;8.24;100.00;100568.03;4989644;28;20058;-81
2022/04/20 07:25:04;;;;;;;1.55;0.55;;;;;;;8.19;100.00;100568.75;4990420;28;20571;-82
2022/04/20 07:27:32;;;;;;;0.75;0.47;;;;;;;8.16;100.00;100560.03;4990602;28;20125;-82
2022/04/20 07:30:02;;;;;;;1.85;0.40;;;;;;;8.12;100.00;100561.59;4992052;28;20042;-82
2022/04/20 07:32:30;;;;;;;0.90;0.43;;;;;;;8.09;100.00;100565.78;4990544;28;20054;-83
2022/04/20 07:34:59;;;;;;;1.20;0.50;;;;;;;8.06;100.00;100563.97;4991829;28;20065;-82
2022/04/20 07:37:27;;;;;;;1.40;0.40;;;;;;;8.04;100.00;100552.75;4994835;28;20245;-82
2022/04/20 07:39:55;;;;;;;0.65;0.45;;;;;;;8.01;100.00;100546.59;4991321;28;20050;-82
2022/04/20 07:42:24;;;;;;;0.95;0.60;;;;;;;7.97;100.00;100558.47;4992366;28;20057;-81
2022/04/20 07:44:54;;;;;;;0.50;0.35;;;;;;;7.93;100.00;100549.75;4990892;28;20085;-82
2022/04/20 07:47:24;;;;;;;1.55;0.60;;;;;;;7.88;100.00;100540.09;4990902;28;20491;-81
2022/04/20 07:52:42;;;;;;;4.90;1.63;;;;;;;7.76;100.00;100533.69;4989965;28;20050;-81
2022/04/20 07:55:11;;;;;;;1.52;0.98;;;;;;;7.73;100.00;100535.28;4991793;28;20141;-81
2022/04/20 07:57:42;;;;;;;1.95;1.10;;;;;;;7.68;100.00;100535.09;4991038;28;20054;-82
2022/04/20 08:00:13;;;;;;;1.70;1.25;;;;;;;7.65;100.00;100535.00;4990570;28;20050;-81
2022/04/20 08:02:44;;;;;;;1.13;0.70;;;;;;;7.61;100.00;100530.53;4989855;28;20060;-82
2022/04/20 08:05:14;;;;;;;2.55;0.88;;;;;;;7.58;100.00;100540.69;4989257;28;20058;-82
2022/04/20 08:07:43;;;;;;;2.50;1.05;;;;;;;7.56;100.00;100524.34;4991159;28;20042;-82
2022/04/20 08:10:13;;;;;;;2.53;1.17;;;;;;;7.53;100.00;100526.78;4992776;28;20050;-82
2022/04/20 08:12:43;;;;;;;2.17;1.05;;;;;;;7.49;100.00;100517.19;4992775;28;20108;-82
2022/04/20 08:15:12;;;;;;;3.33;0.98;;;;;;;7.45;100.00;100513.63;4992798;28;20058;-82
2022/04/20 08:17:42;;;;;;;3.25;0.90;;;;;;;7.42;100.00;100521.25;4992420;28;20081;-81
2022/04/20 08:20:11;;;;;;;1.88;0.80;;;;;;;7.38;100.00;100513.34;4992926;28;20054;-82
2022/04/20 08:22:44;;;;;;;1.10;0.60;;;;;;;7.33;100.00;100502.88;4992443;28;20153;-82
2022/04/20 08:25:15;;;;;;;1.60;0.85;;;;;;;7.30;100.00;100507.88;4992300;28;20116;-81
2022/04/20 08:27:43;;;;;;;3.58;1.00;;;;;;;7.27;100.00;100508.66;4992172;28;20491;-81
2022/04/20 08:30:12;;;;;;;1.58;0.80;;;;;;;7.25;100.00;100504.25;4991715;28;20042;-81
2022/04/20 08:32:43;;;;;;;1.23;0.80;;;;;;;7.20;100.00;100501.50;4992890;28;20058;-80
2022/04/20 08:35:11;;;;;;;1.88;0.90;;;;;;;7.15;100.00;100503.03;4994879;28;20188;-80
2022/04/20 08:37:40;;;;;;;1.52;0.65;;;;;;;7.10;100.00;100496.81;4994317;28;20050;-82
2022/04/20 08:40:09;;;;;;;1.30;0.80;;;;;;;7.06;100.00;100495.81;4992052;28;20093;-81
2022/04/20 08:42:41;;;;;;;5.22;1.27;;;;;;;7.03;100.00;100489.66;4992369;28;20185;-80
2022/04/20 08:45:11;;;;;;;0.85;0.60;;;;;;;6.97;100.00;100492.03;4991671;28;20046;-81
2022/04/20 08:47:44;;;;;;;0.70;0.60;;;;;;;6.90;100.00;100486.63;4991885;28;20046;-81
2022/04/20 08:50:12;;;;;;;0.47;0.47;;;;;;;6.88;100.00;100493.41;4994258;28;20751;-80
2022/04/20 08:52:42;;;;;;;0.70;0.55;;;;;;;6.85;100.00;100493.28;4992526;28;20419;-80
2022/04/20 08:55:12;;;;;;;0.93;0.55;;;;;;;6.83;100.00;100497.50;4993662;28;20042;-83
2022/04/20 08:57:42;;;;;;;0.82;0.68;;;;;;;6.81;100.00;100495.69;4993883;28;20105;-81
2022/04/20 09:00:12;;;;;;;1.25;0.68;;;;;;;6.80;100.00;100493.91;4991506;28;20054;-82
2022/04/20 09:02:42;;;;;;;0.93;0.70;;;;;;;6.77;100.00;100475.78;4992881;28;20105;-82
2022/04/20 09:05:11;;;;;;;1.50;0.75;;;;;;;6.74;100.00;100476.53;4983942;28;20069;-80
2022/04/20 09:07:39;;;;;;;3.88;1.02;;;;;;;6.76;100.00;100485.19;4972293;28;20086;-81
2022/04/20 09:10:08;;;;;;;2.55;0.80;;;;;;;6.76;100.00;100472.34;4976727;28;20137;-81
2022/04/20 09:12:43;;;;;;;3.75;0.70;;;;;;;6.76;100.00;100469.78;4991250;28;20130;-81
2022/04/20 09:15:14;;;;;;;2.92;1.17;;;;;;;6.77;100.00;100474.09;4991817;28;20055;-81
2022/04/20 09:17:46;;;;;;;1.02;0.90;;;;;;;6.75;100.00;100468.00;4992351;28;20046;-81
2022/04/20 09:20:19;;;;;;;2.28;1.05;;;;;;;6.75;100.00;100460.28;4991855;28;20097;-81
2022/04/20 09:23:01;;;;;;;1.27;0.90;;;;;;;6.72;100.00;100448.19;4991398;28;20436;-81
2022/04/20 09:25:34;;;;;;;1.27;0.68;;;;;;;6.72;100.00;100449.88;4991144;28;20050;-81
2022/04/20 09:28:03;;;;;;;2.55;0.88;;;;;;;6.72;100.00;100447.31;4991227;28;20050;-81
2022/04/20 09:30:36;;;;;;;1.27;0.90;;;;;;;6.72;100.00;100444.75;4991372;28;20784;-80
2022/04/20 09:33:09;;;;;;;2.13;0.98;;;;;;;6.74;100.00;100422.53;4991778;28;20186;-81
2022/04/20 09:35:45;;;;;;;1.77;1.00;;;;;;;6.76;100.00;100425.16;4994094;28;20050;-80
2022/04/20 09:38:15;;;;;;;3.63;0.60;;;;;;;6.76;100.00;100425.16;4991322;28;20050;-81
2022/04/20 09:40:43;;;;;;;1.45;0.82;;;;;;;6.67;100.00;100408.56;4991401;28;20054;-81
2022/04/20 09:43:16;;;;;;;4.13;1.13;;;;;;;6.70;100.00;100410.38;4990672;28;20054;-81
2022/04/20 09:45:44;;;;;;;;;;;;;;;6.71;100.00;100412.13;4991386;28;20538;-80
2022/04/20 09:51:12;;;;;;;1.17;0.50;;;;;;;6.66;100.00;100405.94;4991240;28;20066;-80
2022/04/20 09:53:42;;;;;;;1.63;0.85;;;;;;;6.64;100.00;100394.69;4990658;28;20050;-81
2022/04/20 09:56:17;;;;;;;1.83;0.93;;;;;;;6.58;100.00;100385.06;4991217;28;20034;-80
2022/04/20 09:58:46;;;;;;;1.45;0.60;;;;;;;6.61;100.00;100386.88;4990720;28;20046;-78
2022/04/20 10:01:30;;;;;;;1.83;0.90;;;;;;;6.56;100.00;100385.84;4990399;28;20049;-80
2022/04/20 10:04:02;;;;;;;1.45;0.77;;;;;;;6.53;100.00;100384.00;4989842;28;20054;-81
2022/04/20 10:06:30;;;;;;;3.15;0.70;;;;;;;6.52;100.00;100374.53;4956844;28;20051;-81
2022/04/20 10:08:59;;;;;;;2.30;1.17;;;;;;;6.48;100.00;100368.41;4943525;29;20051;-80
2022/04/20 10:11:29;;;;;;;3.28;1.25;;;;;;;6.47;100.00;100365.78;4951308;29;20089;-79
2022/04/20 10:16:49;;;;;;;2.05;1.17;;;;;;;6.43;100.00;100362.19;4951564;29;20237;-81
2022/04/20 10:19:26;;;;;;;1.67;0.90;;;;;;;6.40;100.00;100349.22;4951481;29;20130;-79
2022/04/20 10:21:57;;;;;;;1.52;0.95;;;;;;;6.35;100.00;100343.03;4951328;29;20444;-78
2022/04/20 10:24:29;;;;;;;3.42;1.65;;;;;;;6.32;100.00;100344.59;4951513;29;20629;-80
2022/04/20 10:27:05;;;;;;;1.88;1.15;;;;;;;6.29;100.00;100340.22;4932493;29;20127;-80
2022/04/20 10:29:42;;;;;;;1.75;0.80;;;;;;;6.28;100.00;100334.22;4932052;29;20091;-79
2022/04/20 10:32:15;;;;;;;2.38;1.02;;;;;;;6.25;100.00;100340.91;4933454;29;20099;-81
2022/04/20 10:34:47;;;;;;;1.00;0.70;;;;;;;6.21;100.00;100345.06;4936097;29;20052;-78
2022/04/20 10:37:20;;;;;;;1.23;0.65;;;;;;;6.19;100.00;100340.69;4932572;29;20059;-80
2022/04/20 10:39:48;;;;;;;1.13;0.75;;;;;;;6.19;100.00;100344.13;4932787;29;20303;-77
2022/04/20 10:42:25;;;;;;;1.83;0.95;;;;;;;6.19;100.00;100332.97;4938170;29;20045;-77
2022/04/20 10:45:00;;;;;;;3.38;1.13;;;;;;;6.19;100.00;100328.69;4951600;28;20051;-77
2022/04/20 10:47:30;;;;;;;3.75;1.10;;;;;;;6.20;100.00;100320.16;4951574;29;20084;-77
2022/04/20 10:50:16;;;;;;;2.95;0.90;;;;;;;6.20;100.00;100316.72;4952307;28;20098;-76
2022/04/20 10:52:48;;;;;;;2.75;0.90;;;;;;;6.20;100.00;100315.03;4952367;29;20110;-77
2022/04/20 10:55:17;;;;;;;1.73;0.90;;;;;;;6.21;100.00;100310.78;4951054;29;20439;-75
2022/04/20 10:57:48;;;;;;;1.15;0.73;;;;;;;6.21;100.00;100315.94;4950870;29;20051;-78
2022/04/20 11:00:34;;;;;;;1.00;0.80;;;;;;;6.22;100.00;100315.09;4950924;28;20067;-78
2022/04/20 11:03:07;;;;;;;1.50;0.77;;;;;;;6.19;100.00;100312.41;4950426;28;20059;-81
2022/04/20 11:05:53;;;;;;;1.13;0.75;;;;;;;6.19;100.00;100309.84;4952335;28;20074;-75
2022/04/20 11:08:22;;;;;;;2.97;1.17;;;;;;;6.21;100.00;100310.78;4942214;28;20501;-77
2022/04/20 11:19:52;;;;;;;2.42;1.00;;;;;;;6.32;100.00;100309.50;4951068;29;20420;-79
2022/04/20 11:22:23;;;;;;;0.93;0.80;;;;;;;6.33;100.00;100303.56;4950581;29;20074;-79
2022/04/20 11:25:02;;;;;;;1.83;0.80;;;;;;;6.35;100.00;100304.50;4950066;29;20106;-77
2022/04/20 11:27:35;;;;;;;3.83;1.33;;;;;;;6.37;100.00;100308.00;4950160;28;20063;-78
2022/04/20 11:30:05;;;;;;;1.30;0.90;;;;;;;6.35;100.00;100296.78;4950396;28;20059;-76
2022/04/20 11:32:33;;;;;;;3.42;1.00;;;;;;;6.36;100.00;100301.09;4952899;28;20055;-79
2022/04/20 11:35:11;;;;;;;1.40;0.90;;;;;;;6.38;100.00;100298.59;4951628;28;20047;-78
2022/04/20 11:37:41;;;;;;;1.27;0.90;;;;;;;6.37;100.00;100279.75;4951044;29;20417;-79
2022/04/20 11:40:13;;;;;;;1.90;0.80;;;;;;;6.36;100.00;100262.56;4951026;29;20580;-78
2022/04/20 11:42:42;;;;;;;2.45;1.25;;;;;;;6.36;100.00;100259.09;4950034;28;20114;-78
2022/04/20 11:45:12;;;;;;;3.92;1.10;;;;;;;6.31;100.00;100253.78;4950672;28;20051;-78
2022/04/20 11:47:45;;;;;;;3.50;1.33;;;;;;;6.29;100.00;100263.13;4950434;29;20062;-78
2022/04/20 11:50:14;;;;;;;6.30;2.70;;;;;;;6.28;100.00;100249.41;4954020;28;20059;-78
2022/04/20 11:52:58;;;;;;;2.28;1.10;;;;;;;6.26;100.00;100252.75;4954310;29;20047;-79
2022/04/20 11:55:26;;;;;;;4.13;1.50;;;;;;;6.25;100.00;100253.53;4954485;29;20130;-80
2022/04/20 11:57:55;;;;;;;2.15;1.13;;;;;;;6.25;100.00;100250.97;4954258;28;20057;-78
2022/04/20 12:00:23;;;;;;;2.03;1.05;;;;;;;6.24;100.00;100254.38;4953864;29;20077;-78
2022/04/20 12:02:52;;;;;;;2.70;1.38;;;;;;;6.21;100.00;100249.13;4953800;28;20066;-79
2022/04/20 12:05:22;;;;;;;2.70;1.23;;;;;;;6.15;100.00;100251.44;4955942;28;20151;-79
2022/04/20 12:07:53;;;;;;;4.32;1.10;;;;;;;6.08;100.00;100238.34;4953241;29;20083;-80
2022/04/20 12:10:21;;;;;;;2.10;1.10;;;;;;;6.06;100.00;100229.72;4953457;29;20079;-79